»·PEaware :: SWA1964 KDAL-KTPA

SWA1964 :: KDAL-KTPA

FLIGHT INFORMATION

Flight Status: Arrived
Operator:
Southwest Airlines
More flights by this operator :: More flights under this callsign
Pilot: Drew L. (13237)
Aircraft: BOEING 737-700
(B737)
More flights by this aircraft type
Origin: KDAL Dallas Love
United States
Destination: KTPA Tampa Intl
United States
More flights between these airports :: More routes between these airports
Route: LNDRE5 ZALEA KH09K CABLO Q104 HEVVN FOOXX5
File this flight plan on PilotEdge
Remarks: #NeverForget God Bless AAL11, UAL175, AAL77, & UAL93
Altitude:
(Current/Filed)
37,000ft
Speed:
(Current/Filed)
466kts
Departed: 10-Sep-20 11:29 PM
Arrived: 11-Sep-20 01:28 AM
Distance/Time
Traveled:
795nm/1:59
Distance/Time
To Go:
Arrived

Flight Plot

Page will automatically refresh every two minutes.

Flight plan parsing failed; only flown route is shown


Map Options




Map Legend


Flown Route
Filed Route
Departure Airport
Arrival Airport
Navaid (VOR, NDB)
Fix

Horizontal Profiles

Position Reports

Time Latitude Longitude Heading Altitude Ground
Speed
10-Sep-20 23:18 32.846422 -96.849888 179 480ft 0kts
10-Sep-20 23:19 32.846422 -96.849888 179 480ft 0kts
10-Sep-20 23:20 32.846422 -96.849888 179 480ft 0kts
10-Sep-20 23:21 32.846625 -96.849888 179 480ft 2kts
10-Sep-20 23:22 32.847223 -96.849889 180 481ft 2kts
10-Sep-20 23:23 32.847296 -96.849889 180 481ft 0kts
10-Sep-20 23:24 32.847204 -96.848802 76 483ft 12kts
10-Sep-20 23:25 32.844948 -96.845375 156 483ft 12kts
10-Sep-20 23:26 32.841420 -96.841470 132 483ft 19kts
10-Sep-20 23:27 32.842447 -96.839629 315 488ft 18kts
10-Sep-20 23:28 32.866033 -96.866592 315 1605ft 166kts
10-Sep-20 23:29 32.907357 -96.904627 352 3418ft 223kts
10-Sep-20 23:30 32.957824 -96.857256 74 5639ft 274kts
10-Sep-20 23:31 32.949517 -96.768000 119 8725ft 285kts
10-Sep-20 23:32 32.904582 -96.686780 125 11275ft 318kts
10-Sep-20 23:33 32.851431 -96.596094 125 13972ft 344kts
10-Sep-20 23:34 32.795641 -96.501050 125 16932ft 360kts
10-Sep-20 23:35 32.737412 -96.402105 125 19625ft 375kts
10-Sep-20 23:36 32.694722 -96.287365 99 22054ft 394kts
10-Sep-20 23:37 32.685051 -96.155285 95 24238ft 409kts
10-Sep-20 23:38 32.675928 -96.018566 95 26229ft 423kts
10-Sep-20 23:39 32.666349 -95.877569 95 28044ft 436kts
10-Sep-20 23:40 32.656108 -95.732077 95 29711ft 448kts
10-Sep-20 23:41 32.645658 -95.583370 95 31457ft 455kts
10-Sep-20 23:42 32.635030 -95.434663 95 33357ft 452kts
10-Sep-20 23:43 32.624266 -95.286458 95 35103ft 449kts
10-Sep-20 23:44 32.613437 -95.139832 95 36615ft 446kts
10-Sep-20 23:45 32.602363 -94.992285 95 37221ft 460kts
10-Sep-20 23:46 32.590825 -94.840750 94 37223ft 470kts
10-Sep-20 23:47 32.561813 -94.689605 107 37214ft 472kts
10-Sep-20 23:48 32.519946 -94.542368 107 37213ft 472kts
10-Sep-20 23:49 32.478290 -94.395333 107 37215ft 472kts
10-Sep-20 23:50 32.436312 -94.247925 108 37217ft 472kts
10-Sep-20 23:51 32.394141 -94.100586 108 37204ft 472kts
10-Sep-20 23:52 32.352001 -93.954085 108 37188ft 472kts
10-Sep-20 23:53 32.309539 -93.807191 108 37183ft 472kts
10-Sep-20 23:54 32.266938 -93.660543 108 37183ft 472kts
10-Sep-20 23:55 32.224126 -93.513889 108 37183ft 472kts
10-Sep-20 23:57 32.191260 -93.364338 101 37183ft 472kts
10-Sep-20 23:58 32.162468 -93.213313 102 37174ft 472kts
10-Sep-20 23:59 32.133493 -93.062715 101 37172ft 471kts
11-Sep-20 00:00 32.104459 -92.912839 100 37190ft 462kts
11-Sep-20 00:01 32.076099 -92.767330 99 37198ft 455kts
11-Sep-20 00:02 32.047434 -92.621224 99 37210ft 458kts
11-Sep-20 00:03 32.018669 -92.475572 99 37211ft 456kts
11-Sep-20 00:04 31.989720 -92.329910 100 37203ft 457kts
11-Sep-20 00:05 31.960537 -92.184065 100 37177ft 457kts
11-Sep-20 00:06 31.931235 -92.038484 100 37166ft 457kts
11-Sep-20 00:07 31.901812 -91.893215 100 37160ft 457kts
11-Sep-20 00:08 31.872196 -91.747908 100 37157ft 457kts
11-Sep-20 00:09 31.842416 -91.602691 100 37161ft 457kts
11-Sep-20 00:10 31.812486 -91.457646 100 37160ft 457kts
11-Sep-20 00:11 31.782321 -91.312369 100 37164ft 457kts
11-Sep-20 00:11 31.757029 -91.191258 100 37164ft 458kts
11-Sep-20 00:13 31.721753 -91.023395 101 37141ft 450kts
11-Sep-20 00:14 31.691766 -90.881526 101 37143ft 448kts
11-Sep-20 00:14 31.666572 -90.762998 101 37138ft 449kts
11-Sep-20 00:16 31.631145 -90.597248 101 37134ft 450kts
11-Sep-20 00:16 31.605779 -90.479277 101 37134ft 450kts
11-Sep-20 00:17 31.575003 -90.336911 102 37135ft 449kts
11-Sep-20 00:19 31.538971 -90.171346 102 37138ft 449kts
11-Sep-20 00:19 31.513139 -90.053270 101 37137ft 450kts
11-Sep-20 00:20 31.489634 -89.913485 95 37138ft 447kts
11-Sep-20 00:21 31.471862 -89.765944 95 37145ft 447kts
11-Sep-20 00:22 31.454294 -89.621590 95 37144ft 448kts
11-Sep-20 00:23 31.436611 -89.477689 95 37143ft 446kts
11-Sep-20 00:24 31.418798 -89.333970 96 37143ft 447kts
11-Sep-20 00:25 31.400768 -89.190014 96 37143ft 448kts
11-Sep-20 00:26 31.382535 -89.045804 96 37136ft 446kts
11-Sep-20 00:27 31.364349 -88.903103 99 37138ft 446kts
11-Sep-20 00:28 31.345403 -88.755919 100 37137ft 467kts
11-Sep-20 00:29 31.325953 -88.606003 100 37130ft 464kts
11-Sep-20 00:30 31.306485 -88.457463 100 37122ft 463kts
11-Sep-20 00:31 31.286735 -88.308180 101 37112ft 464kts
11-Sep-20 00:32 31.266865 -88.159405 101 37109ft 465kts
11-Sep-20 00:33 31.246733 -88.009891 101 37109ft 464kts
11-Sep-20 00:34 31.226571 -87.861581 101 37109ft 464kts
11-Sep-20 00:35 31.206049 -87.711909 101 37112ft 465kts
11-Sep-20 00:36 31.185487 -87.563249 101 37116ft 463kts
11-Sep-20 00:37 31.164770 -87.414804 101 37114ft 464kts
11-Sep-20 00:38 31.143909 -87.266530 101 37110ft 463kts
11-Sep-20 00:39 31.122863 -87.118344 101 37107ft 465kts
11-Sep-20 00:40 31.101458 -86.968818 100 37107ft 469kts
11-Sep-20 00:41 31.079779 -86.818648 100 37107ft 471kts
11-Sep-20 00:42 31.057883 -86.668267 100 37115ft 470kts
11-Sep-20 00:43 31.035816 -86.517971 100 37118ft 470kts
11-Sep-20 00:44 31.013551 -86.367586 100 37118ft 470kts
11-Sep-20 00:45 30.991195 -86.217814 100 37117ft 469kts
11-Sep-20 00:46 30.968687 -86.068259 100 37117ft 468kts
11-Sep-20 00:47 30.946084 -85.919275 101 37117ft 467kts
11-Sep-20 00:48 30.923341 -85.770552 101 37112ft 466kts
11-Sep-20 00:49 30.900482 -85.622246 101 37106ft 466kts
11-Sep-20 00:50 30.877408 -85.473718 101 37096ft 465kts
11-Sep-20 00:51 30.854288 -85.326046 101 37092ft 465kts
11-Sep-20 00:52 30.805508 -85.191957 136 37112ft 461kts
11-Sep-20 00:53 30.711857 -85.089667 136 37091ft 462kts
11-Sep-20 00:54 30.617575 -84.987655 136 37091ft 466kts
11-Sep-20 00:55 30.522590 -84.885168 136 37091ft 467kts
11-Sep-20 00:56 30.427333 -84.782674 136 37091ft 467kts
11-Sep-20 00:57 30.332194 -84.680593 136 37091ft 467kts
11-Sep-20 00:58 30.237182 -84.578928 136 37091ft 467kts
11-Sep-20 00:59 30.142007 -84.477369 136 37090ft 467kts
11-Sep-20 01:00 30.046481 -84.375715 136 37090ft 467kts
11-Sep-20 01:01 29.950968 -84.274360 137 37091ft 467kts
11-Sep-20 01:02 29.855597 -84.173437 137 37091ft 467kts
11-Sep-20 01:03 29.760040 -84.072589 137 37091ft 467kts
11-Sep-20 01:04 29.663906 -83.971402 137 37090ft 467kts
11-Sep-20 01:05 29.568272 -83.871013 137 37086ft 467kts
11-Sep-20 01:06 29.472368 -83.770608 137 37082ft 467kts
11-Sep-20 01:07 29.376603 -83.670616 137 37082ft 467kts
11-Sep-20 01:08 29.280399 -83.570433 137 37081ft 467kts
11-Sep-20 01:09 29.177474 -83.481139 150 37084ft 468kts
11-Sep-20 01:10 29.063477 -83.409222 150 37081ft 468kts
11-Sep-20 01:11 28.950633 -83.337576 150 37079ft 456kts
11-Sep-20 01:12 28.839453 -83.267176 150 37059ft 460kts
11-Sep-20 01:13 28.728700 -83.197221 150 36358ft 459kts
11-Sep-20 01:14 28.617775 -83.127329 150 33452ft 459kts
11-Sep-20 01:15 28.506398 -83.057325 150 30268ft 455kts
11-Sep-20 01:16 28.398203 -82.989555 150 27641ft 437kts
11-Sep-20 01:17 28.293310 -82.924099 149 25043ft 420kts
11-Sep-20 01:18 28.196981 -82.855889 135 21982ft 397kts
11-Sep-20 01:19 28.127881 -82.764665 127 18311ft 373kts
11-Sep-20 01:20 28.062726 -82.678686 133 14741ft 352kts
11-Sep-20 01:21 27.986486 -82.622664 166 12598ft 305kts
11-Sep-20 01:22 27.908468 -82.619262 179 11209ft 273kts
11-Sep-20 01:23 27.837687 -82.611260 131 7921ft 256kts
11-Sep-20 01:24 27.851581 -82.550627 39 5788ft 209kts
11-Sep-20 01:25 27.900824 -82.544444 359 1325ft 172kts
11-Sep-20 01:26 27.941488 -82.543084 1 430ft 149kts
11-Sep-20 01:27 27.974398 -82.541971 0 13ft 36kts
11-Sep-20 01:28 27.978389 -82.540530 35 17ft 10kts

Navigation Log

Ident Type
Flight plan parsing failed, navigation log unavailable